createdAt,value
2022-09-28T00:01:52.559Z,8.00
2022-09-28T00:04:58.023Z,6.80
2022-09-28T00:07:29.513Z,7.80
2022-09-28T00:13:07.998Z,7.80
2022-09-28T00:15:39.048Z,9.50
2022-09-28T00:18:10.208Z,8.80
2022-09-28T00:20:41.373Z,8.50
2022-09-28T00:23:12.574Z,8.90
2022-09-28T00:25:43.596Z,8.50
2022-09-28T00:28:14.726Z,10.20
2022-09-28T00:30:45.977Z,9.80
2022-09-28T00:33:17.161Z,10.40
2022-09-28T00:35:48.263Z,8.60
2022-09-28T00:38:20.444Z,9.90
2022-09-28T00:43:40.666Z,8.80
2022-09-28T00:46:19.604Z,9.10
2022-09-28T00:48:58.401Z,8.90
2022-09-28T00:51:31.602Z,10.60
2022-09-28T00:54:06.363Z,9.10
2022-09-28T00:59:11.578Z,11.60
2022-09-28T01:01:42.740Z,11.20
2022-09-28T01:04:14.143Z,10.80
2022-09-28T01:06:47.668Z,11.60
2022-09-28T01:09:19.988Z,11.60
2022-09-28T01:11:51.715Z,11.40
2022-09-28T01:14:25.866Z,10.60
2022-09-28T01:17:06.487Z,9.80
2022-09-28T01:20:08.670Z,10.30
2022-09-28T01:23:06.745Z,10.50
2022-09-28T01:25:47.519Z,10.70
2022-09-28T01:28:20.716Z,12.60
2022-09-28T01:30:59.748Z,12.10
2022-09-28T01:33:36.825Z,12.80
2022-09-28T01:36:13.217Z,12.10
2022-09-28T01:38:48.597Z,13.50
2022-09-28T01:41:22.311Z,13.30
2022-09-28T01:43:57.813Z,14.10
2022-09-28T01:46:35.015Z,15.40
2022-09-28T01:49:11.408Z,12.70
2022-09-28T01:51:47.398Z,13.20
2022-09-28T01:54:27.930Z,15.50
2022-09-28T01:57:04.410Z,21.00
2022-09-28T01:59:38.686Z,14.60
2022-09-28T02:02:15.130Z,17.00
2022-09-28T02:04:51.054Z,15.70
2022-09-28T02:07:27.170Z,16.90
2022-09-28T02:10:02.251Z,15.60
2022-09-28T02:12:38.945Z,14.60
2022-09-28T02:15:18.479Z,15.40
2022-09-28T02:17:50.715Z,15.10
2022-09-28T02:20:25.498Z,14.20
2022-09-28T02:22:59.253Z,14.50
2022-09-28T02:25:39.761Z,15.00
2022-09-28T02:28:14.792Z,14.30
2022-09-28T02:30:47.637Z,15.20
2022-09-28T02:33:23.443Z,13.30
2022-09-28T02:35:55.076Z,14.50
2022-09-28T02:38:26.871Z,12.20
2022-09-28T02:41:10.860Z,14.60
2022-09-28T02:43:54.486Z,13.90
2022-09-28T02:46:34.184Z,13.50
2022-09-28T02:49:21.718Z,13.70
2022-09-28T02:52:15.310Z,13.80
2022-09-28T02:55:08.692Z,12.20
2022-09-28T02:57:52.437Z,10.60
2022-09-28T03:00:25.561Z,10.90
2022-09-28T03:03:10.322Z,11.00
2022-09-28T03:05:47.314Z,11.40
2022-09-28T03:08:25.978Z,10.80
2022-09-28T03:11:00.950Z,9.50
2022-09-28T03:13:33.239Z,10.40
2022-09-28T03:16:16.777Z,7.80
2022-09-28T03:18:48.444Z,9.30
2022-09-28T03:21:19.956Z,10.00
2022-09-28T03:23:50.974Z,9.40
2022-09-28T03:26:22.893Z,8.20
2022-09-28T03:28:54.043Z,9.10
2022-09-28T03:31:25.544Z,9.90
2022-09-28T03:34:00.934Z,9.20
2022-09-28T03:36:36.692Z,8.80
2022-09-28T03:39:09.138Z,8.10
2022-09-28T03:41:40.329Z,11.10
2022-09-28T03:44:11.460Z,9.20
2022-09-28T03:46:42.603Z,9.40
2022-09-28T03:49:14.221Z,9.50
2022-09-28T03:51:45.469Z,8.60
2022-09-28T03:54:17.684Z,13.40
2022-09-28T03:56:48.875Z,8.80
2022-09-28T03:59:20.440Z,9.10
2022-09-28T04:01:53.800Z,9.20
2022-09-28T04:04:25.384Z,9.30
2022-09-28T04:06:56.588Z,9.00
2022-09-28T04:09:28.107Z,10.20
2022-09-28T04:12:03.717Z,9.50
2022-09-28T04:14:35.465Z,9.00
2022-09-28T04:17:07.497Z,10.30
2022-09-28T04:19:38.647Z,8.50
2022-09-28T04:22:09.743Z,9.40
2022-09-28T04:24:43.762Z,11.10
2022-09-28T04:27:32.345Z,9.80
2022-09-28T04:30:03.555Z,10.30
2022-09-28T04:32:34.724Z,7.50
2022-09-28T04:35:06.728Z,7.30
2022-09-28T04:37:37.920Z,6.90
2022-09-28T04:40:10.763Z,8.60
2022-09-28T04:42:42.049Z,10.40
2022-09-28T04:45:14.204Z,9.40
2022-09-28T04:47:45.248Z,9.30
2022-09-28T04:50:16.484Z,8.80
2022-09-28T04:52:47.704Z,7.90
2022-09-28T04:55:20.907Z,9.70
2022-09-28T04:57:52.384Z,8.70
2022-09-28T05:00:23.740Z,8.40
2022-09-28T05:02:55.171Z,6.90
2022-09-28T05:05:26.630Z,11.70
2022-09-28T05:08:00.953Z,9.50
2022-09-28T05:10:32.462Z,11.00
2022-09-28T05:13:04.596Z,8.80
2022-09-28T05:15:37.453Z,8.90
2022-09-28T05:18:09.257Z,9.00
2022-09-28T05:20:44.742Z,10.20
2022-09-28T05:23:16.917Z,7.80
2022-09-28T05:25:48.471Z,8.80
2022-09-28T05:28:26.320Z,7.30
2022-09-28T05:31:01.720Z,9.20
2022-09-28T05:33:34.378Z,7.70
2022-09-28T05:36:06.261Z,7.00
2022-09-28T05:38:37.645Z,7.60
2022-09-28T05:41:09.469Z,6.70
2022-09-28T05:43:40.980Z,8.60
2022-09-28T05:46:12.262Z,5.90
2022-09-28T05:48:43.437Z,6.70
2022-09-28T05:51:14.652Z,6.20
2022-09-28T05:53:45.881Z,6.70
2022-09-28T05:56:17.210Z,7.80
2022-09-28T05:58:48.477Z,6.90
2022-09-28T06:01:20.152Z,6.30
2022-09-28T06:03:51.330Z,8.80
2022-09-28T06:06:22.542Z,6.60
2022-09-28T06:08:53.864Z,7.20
2022-09-28T06:11:28.136Z,6.40
2022-09-28T06:13:59.557Z,6.80
2022-09-28T06:16:31.059Z,5.90
2022-09-28T06:19:05.195Z,7.20
2022-09-28T06:21:36.617Z,7.40
2022-09-28T06:24:08.689Z,7.30
2022-09-28T06:26:40.124Z,6.80
2022-09-28T06:29:18.685Z,7.40
2022-09-28T06:31:51.647Z,7.80
2022-09-28T06:34:24.990Z,6.50
2022-09-28T06:36:56.255Z,7.80
2022-09-28T06:39:27.504Z,7.30
2022-09-28T06:41:59.207Z,8.40
2022-09-28T06:44:30.684Z,7.30
2022-09-28T06:47:01.931Z,6.50
2022-09-28T06:49:33.212Z,8.50
2022-09-28T06:52:04.738Z,8.60
2022-09-28T06:54:36.202Z,7.50
2022-09-28T06:57:07.492Z,8.40
2022-09-28T06:59:38.757Z,6.90
2022-09-28T07:02:13.081Z,8.00
2022-09-28T07:04:45.350Z,6.30
2022-09-28T07:07:16.511Z,7.80
2022-09-28T07:09:51.287Z,7.70
2022-09-28T07:12:25.741Z,7.00
2022-09-28T07:14:57.912Z,6.70
2022-09-28T07:20:25.379Z,6.20
2022-09-28T07:23:10.853Z,6.50
2022-09-28T07:25:48.117Z,7.70
2022-09-28T07:28:20.614Z,6.40
2022-09-28T07:30:51.972Z,6.90
2022-09-28T07:33:25.386Z,6.50
2022-09-28T07:35:57.037Z,6.20
2022-09-28T07:38:28.380Z,8.00
2022-09-28T07:41:21.712Z,6.70
2022-09-28T07:43:53.050Z,7.40
2022-09-28T07:46:24.390Z,6.50
2022-09-28T07:48:55.765Z,6.50
2022-09-28T07:51:27.024Z,6.20
2022-09-28T07:53:58.738Z,7.50
2022-09-28T07:56:31.232Z,5.70
2022-09-28T07:59:02.728Z,8.00
2022-09-28T08:01:33.927Z,6.50
2022-09-28T08:04:06.480Z,5.20
2022-09-28T08:06:37.662Z,8.30
2022-09-28T08:09:08.891Z,7.30
2022-09-28T08:11:40.741Z,5.60
2022-09-28T08:14:12.389Z,5.30
2022-09-28T08:16:47.615Z,6.50
2022-09-28T08:19:20.833Z,5.70
2022-09-28T08:21:52.367Z,6.70
2022-09-28T08:24:24.953Z,5.20
2022-09-28T08:26:57.332Z,6.80
2022-09-28T08:29:32.260Z,6.70
2022-09-28T08:32:06.601Z,7.70
2022-09-28T08:34:38.555Z,5.60
2022-09-28T08:37:10.458Z,4.90
2022-09-28T08:39:41.570Z,8.30
2022-09-28T08:42:31.323Z,6.90
2022-09-28T08:45:10.595Z,6.00
2022-09-28T08:48:08.806Z,6.10
2022-09-28T08:50:50.817Z,4.80
2022-09-28T08:53:38.324Z,5.00
2022-09-28T08:56:16.735Z,5.40
2022-09-28T08:58:53.454Z,5.60
2022-09-28T09:01:30.000Z,3.90
2022-09-28T09:04:01.321Z,4.40
2022-09-28T09:06:42.863Z,4.20
2022-09-28T09:09:23.079Z,4.90
2022-09-28T09:12:04.320Z,4.40
2022-09-28T09:15:01.302Z,4.50
2022-09-28T09:17:43.356Z,3.90
2022-09-28T09:20:21.740Z,3.70
2022-09-28T09:23:01.642Z,3.10
2022-09-28T09:25:42.617Z,3.10
2022-09-28T09:28:42.438Z,2.90
2022-09-28T09:31:27.512Z,3.70
2022-09-28T09:34:14.028Z,4.40
2022-09-28T09:36:59.738Z,4.90
2022-09-28T09:39:43.845Z,2.30
2022-09-28T09:42:32.044Z,4.30
2022-09-28T09:45:28.928Z,3.50
2022-09-28T09:48:03.769Z,3.00
2022-09-28T09:50:40.939Z,2.70
2022-09-28T09:53:19.883Z,2.00
2022-09-28T09:55:57.617Z,2.90
2022-09-28T09:58:35.952Z,2.40
2022-09-28T10:01:14.519Z,2.40
2022-09-28T10:03:49.599Z,4.90
2022-09-28T10:06:28.758Z,3.00
2022-09-28T10:09:05.632Z,3.80
2022-09-28T10:11:41.249Z,3.40
2022-09-28T10:14:17.845Z,2.60
2022-09-28T10:16:51.095Z,3.80
2022-09-28T10:19:30.728Z,3.30
2022-09-28T10:22:04.735Z,5.60
2022-09-28T10:24:40.216Z,6.70
2022-09-28T10:27:15.914Z,8.40
2022-09-28T10:29:55.488Z,9.30
2022-09-28T10:32:28.479Z,31.20
2022-09-28T10:35:21.900Z,16.60
2022-09-28T10:37:59.449Z,5.30
2022-09-28T10:40:41.054Z,3.80
2022-09-28T10:43:23.308Z,3.10
2022-09-28T10:46:04.980Z,3.90
2022-09-28T10:51:46.915Z,3.20
2022-09-28T10:54:20.200Z,3.30
2022-09-28T10:56:52.586Z,4.10
2022-09-28T10:59:41.010Z,4.20
2022-09-28T11:02:26.661Z,3.40
2022-09-28T11:04:59.449Z,2.80
2022-09-28T11:07:33.213Z,4.50
2022-09-28T11:10:06.019Z,3.30
2022-09-28T11:12:45.740Z,5.00
2022-09-28T11:15:22.735Z,3.20
2022-09-28T11:17:54.541Z,3.30
2022-09-28T11:20:35.773Z,3.10
2022-09-28T11:23:21.890Z,2.60
2022-09-28T11:26:07.204Z,3.90
2022-09-28T11:28:43.302Z,5.50
2022-09-28T11:31:15.238Z,3.20
2022-09-28T11:33:49.013Z,3.40
2022-09-28T11:36:32.229Z,2.30
2022-09-28T11:39:12.947Z,3.80
2022-09-28T11:41:55.799Z,2.30
2022-09-28T11:44:45.070Z,2.80
2022-09-28T11:47:39.292Z,3.20
2022-09-28T11:50:23.777Z,3.20
2022-09-28T11:53:10.413Z,3.90
2022-09-28T11:55:48.555Z,2.60
2022-09-28T11:58:27.603Z,2.40
2022-09-28T12:01:05.005Z,2.40
2022-09-28T12:03:45.269Z,2.50
2022-09-28T12:06:21.177Z,2.60
2022-09-28T12:08:56.941Z,2.80
2022-09-28T12:11:37.085Z,2.40
2022-09-28T12:14:16.717Z,2.90
2022-09-28T12:17:11.263Z,3.00
2022-09-28T12:19:48.054Z,3.10
2022-09-28T12:22:27.046Z,3.10
2022-09-28T12:25:00.761Z,2.20
2022-09-28T12:27:39.415Z,3.30
2022-09-28T12:30:17.096Z,3.80
2022-09-28T12:32:52.429Z,3.00
2022-09-28T12:35:35.351Z,3.20
2022-09-28T12:38:29.143Z,2.40
2022-09-28T12:41:10.412Z,2.90
2022-09-28T12:44:05.985Z,2.20
2022-09-28T12:46:50.818Z,3.40
2022-09-28T12:52:35.311Z,3.10
2022-09-28T12:55:29.990Z,5.20
2022-09-28T12:58:07.958Z,3.00
2022-09-28T13:00:44.525Z,2.70
2022-09-28T13:03:59.381Z,2.60
2022-09-28T13:06:42.710Z,2.80
2022-09-28T13:09:24.128Z,2.90
2022-09-28T13:12:05.599Z,2.50
2022-09-28T13:15:15.899Z,2.20
2022-09-28T13:17:54.792Z,1.90
2022-09-28T13:20:36.183Z,2.80
2022-09-28T13:23:20.089Z,2.60
2022-09-28T13:25:58.211Z,2.80
2022-09-28T13:28:31.689Z,3.20
2022-09-28T13:31:04.786Z,2.20
2022-09-28T13:33:39.288Z,2.90
2022-09-28T13:36:47.898Z,2.60
2022-09-28T13:39:49.174Z,2.70
2022-09-28T13:42:53.435Z,3.40
2022-09-28T13:45:58.901Z,2.40
2022-09-28T13:48:48.784Z,2.80
2022-09-28T13:51:43.202Z,2.10
2022-09-28T13:54:41.502Z,2.40
2022-09-28T13:57:25.620Z,3.20
2022-09-28T14:00:06.021Z,2.70
2022-09-28T14:02:42.701Z,3.10
2022-09-28T14:05:49.609Z,3.40
2022-09-28T14:08:39.963Z,2.30
2022-09-28T14:11:44.309Z,3.70
2022-09-28T14:14:50.113Z,2.20
2022-09-28T14:17:54.607Z,2.20
2022-09-28T14:20:32.086Z,3.00
2022-09-28T14:23:30.320Z,2.50
2022-09-28T14:26:19.237Z,3.00
2022-09-28T14:29:02.563Z,2.90
2022-09-28T14:31:33.860Z,2.80
2022-09-28T14:34:06.303Z,2.80
2022-09-28T14:37:01.001Z,2.70
2022-09-28T14:39:52.876Z,2.30
2022-09-28T14:42:26.463Z,3.30
2022-09-28T14:45:30.473Z,2.80
2022-09-28T14:48:15.891Z,4.50
2022-09-28T14:50:49.105Z,3.50
2022-09-28T14:53:25.557Z,2.70
2022-09-28T14:56:02.105Z,3.90
2022-09-28T14:58:33.894Z,3.20
2022-09-28T15:01:21.984Z,2.70
2022-09-28T15:03:56.794Z,5.10
2022-09-28T15:06:45.279Z,3.00
2022-09-28T15:12:21.829Z,3.80
2022-09-28T15:14:55.734Z,5.80
2022-09-28T15:17:34.607Z,3.50
2022-09-28T15:20:30.281Z,5.50
2022-09-28T15:23:02.545Z,5.50
2022-09-28T15:25:36.159Z,4.20
2022-09-28T15:28:19.836Z,4.30
2022-09-28T15:30:52.068Z,3.70
2022-09-28T15:33:46.492Z,4.50
2022-09-28T15:36:21.603Z,4.20
2022-09-28T15:38:58.558Z,4.60
2022-09-28T15:41:31.513Z,4.10
2022-09-28T15:44:33.541Z,11.60
2022-09-28T15:47:25.508Z,4.80
2022-09-28T15:50:00.841Z,3.40
2022-09-28T15:52:37.314Z,3.20
2022-09-28T15:55:24.339Z,3.80
2022-09-28T15:58:09.019Z,5.40
2022-09-28T16:00:40.513Z,5.20
2022-09-28T16:03:29.314Z,5.40
2022-09-28T16:06:12.378Z,3.80
2022-09-28T16:08:45.234Z,4.60
2022-09-28T16:11:22.104Z,5.00
2022-09-28T16:14:06.328Z,4.20
2022-09-28T16:16:46.623Z,4.90
2022-09-28T16:19:24.903Z,4.40
2022-09-28T16:21:57.094Z,4.90
2022-09-28T16:24:33.096Z,4.80
2022-09-28T16:27:07.034Z,7.20
2022-09-28T16:29:40.622Z,7.90
2022-09-28T16:32:41.981Z,8.40
2022-09-28T16:35:23.677Z,9.40
2022-09-28T16:38:10.921Z,8.40
2022-09-28T16:40:48.168Z,7.30
2022-09-28T16:43:27.231Z,6.50
2022-09-28T16:46:00.929Z,6.60
2022-09-28T16:48:35.918Z,5.80
2022-09-28T16:51:07.566Z,5.90
2022-09-28T16:53:56.493Z,8.50
2022-09-28T16:56:29.505Z,9.00
2022-09-28T16:59:01.502Z,8.80
2022-09-28T17:01:33.235Z,9.60
2022-09-28T17:04:05.396Z,10.30
2022-09-28T17:06:37.000Z,9.10
2022-09-28T17:09:10.763Z,8.00
2022-09-28T17:11:41.906Z,11.00
2022-09-28T17:14:14.324Z,8.00
2022-09-28T17:19:37.909Z,5.30
2022-09-28T17:22:09.464Z,5.40
2022-09-28T17:24:40.699Z,7.10
2022-09-28T17:27:18.161Z,14.00
2022-09-28T17:29:49.389Z,7.10
2022-09-28T17:32:22.058Z,7.60
2022-09-28T17:35:06.576Z,5.80
2022-09-28T17:37:45.369Z,7.00
2022-09-28T17:40:22.839Z,5.80
2022-09-28T17:42:56.316Z,5.60
2022-09-28T17:45:31.574Z,5.80
2022-09-28T17:48:03.214Z,8.40
2022-09-28T17:50:36.324Z,7.00
2022-09-28T17:53:07.667Z,7.70
2022-09-28T17:55:40.344Z,7.90
2022-09-28T17:58:18.434Z,7.40
2022-09-28T18:00:51.585Z,6.60
2022-09-28T18:03:24.656Z,6.70
2022-09-28T18:06:03.774Z,5.70
2022-09-28T18:08:35.983Z,5.10
2022-09-28T18:11:07.804Z,5.30
2022-09-28T18:13:39.302Z,9.00
2022-09-28T18:16:11.499Z,3.40
2022-09-28T18:18:42.973Z,5.80
2022-09-28T18:21:14.481Z,5.50
2022-09-28T18:23:45.924Z,6.00
2022-09-28T18:26:19.856Z,7.50
2022-09-28T18:28:55.122Z,5.30
2022-09-28T18:31:28.130Z,12.70
2022-09-28T18:34:02.208Z,5.00
2022-09-28T18:36:36.708Z,3.20
2022-09-28T18:39:09.427Z,3.40
2022-09-28T18:41:40.862Z,5.50
2022-09-28T18:44:12.850Z,6.10
2022-09-28T18:46:45.338Z,3.40
2022-09-28T18:49:16.800Z,4.20
2022-09-28T18:51:48.281Z,3.20
2022-09-28T18:54:21.303Z,3.90
2022-09-28T18:56:56.047Z,4.50
2022-09-28T18:59:27.941Z,3.10
2022-09-28T19:02:01.752Z,8.40
2022-09-28T19:04:33.214Z,3.00
2022-09-28T19:07:04.553Z,3.00
2022-09-28T19:09:36.225Z,3.70
2022-09-28T19:12:07.673Z,4.20
2022-09-28T19:14:39.406Z,3.90
2022-09-28T19:17:11.558Z,5.30
2022-09-28T19:19:43.376Z,7.70
2022-09-28T19:22:15.401Z,3.90
2022-09-28T19:24:47.236Z,5.10
2022-09-28T19:27:18.557Z,5.20
2022-09-28T19:29:50.625Z,5.70
2022-09-28T19:32:21.992Z,4.80
2022-09-28T19:34:53.288Z,5.20
2022-09-28T19:37:24.975Z,5.30
2022-09-28T19:39:56.248Z,5.20
2022-09-28T19:42:27.852Z,6.30
2022-09-28T19:44:59.339Z,9.60
2022-09-28T19:47:31.926Z,4.50
2022-09-28T19:50:03.688Z,4.70
2022-09-28T19:52:34.994Z,3.90
2022-09-28T19:55:06.747Z,5.00
2022-09-28T19:57:38.468Z,5.00
2022-09-28T20:00:13.304Z,4.30
2022-09-28T20:02:44.481Z,5.20
2022-09-28T20:05:15.792Z,5.70
2022-09-28T20:07:47.376Z,4.80
2022-09-28T20:10:19.205Z,7.30
2022-09-28T20:12:50.399Z,4.90
2022-09-28T20:15:22.576Z,3.60
2022-09-28T20:17:54.330Z,6.10
2022-09-28T20:20:27.045Z,7.10
2022-09-28T20:22:58.969Z,5.60
2022-09-28T20:25:30.419Z,8.00
2022-09-28T20:28:01.657Z,5.50
2022-09-28T20:30:33.411Z,6.00
2022-09-28T20:33:04.865Z,6.00
2022-09-28T20:35:37.371Z,6.20
2022-09-28T20:38:09.367Z,5.90
2022-09-28T20:40:41.299Z,6.60
2022-09-28T20:43:12.509Z,5.80
2022-09-28T20:45:44.339Z,5.60
2022-09-28T20:48:15.565Z,7.50
2022-09-28T20:50:46.812Z,26.40
2022-09-28T20:53:17.910Z,12.00
2022-09-28T20:55:49.024Z,9.90
2022-09-28T20:58:20.279Z,9.00
2022-09-28T21:00:51.377Z,8.10
2022-09-28T21:03:22.850Z,8.50
2022-09-28T21:05:55.707Z,8.90
2022-09-28T21:08:27.373Z,9.80
2022-09-28T21:10:59.165Z,8.40
2022-09-28T21:13:30.442Z,6.60
2022-09-28T21:16:04.753Z,6.60
2022-09-28T21:18:35.980Z,6.10
2022-09-28T21:21:09.205Z,6.00
2022-09-28T21:23:40.743Z,6.20
2022-09-28T21:26:13.819Z,8.10
2022-09-28T21:28:46.236Z,6.30
2022-09-28T21:31:17.427Z,9.00
2022-09-28T21:33:49.046Z,5.00
2022-09-28T21:36:20.561Z,5.00
2022-09-28T21:38:51.714Z,4.70
2022-09-28T21:41:23.173Z,6.00
2022-09-28T21:43:54.353Z,4.60
2022-09-28T21:46:27.140Z,6.80
2022-09-28T21:48:58.364Z,6.00
2022-09-28T21:51:29.592Z,8.20
2022-09-28T21:54:00.837Z,7.30
2022-09-28T21:56:32.676Z,9.30
2022-09-28T21:59:04.579Z,8.00
2022-09-28T22:01:36.046Z,5.80
2022-09-28T22:04:07.393Z,9.00
2022-09-28T22:06:38.602Z,7.90
2022-09-28T22:09:10.291Z,10.90
2022-09-28T22:11:41.760Z,12.70
2022-09-28T22:14:15.877Z,12.20
2022-09-28T22:16:47.239Z,11.10
2022-09-28T22:19:18.554Z,11.70
2022-09-28T22:21:49.787Z,10.60
2022-09-28T22:24:21.138Z,12.80
2022-09-28T22:26:52.364Z,12.20
2022-09-28T22:29:24.195Z,13.40
2022-09-28T22:32:02.344Z,13.30
2022-09-28T22:34:33.749Z,11.70
2022-09-28T22:37:05.850Z,14.10
2022-09-28T22:39:37.993Z,12.00
2022-09-28T22:42:09.935Z,16.10
2022-09-28T22:44:41.034Z,15.20
2022-09-28T22:47:12.627Z,15.10
2022-09-28T22:49:44.484Z,16.00
2022-09-28T22:52:16.461Z,16.30
2022-09-28T22:54:48.261Z,15.00
2022-09-28T22:57:19.710Z,17.30
2022-09-28T22:59:50.974Z,18.60
2022-09-28T23:02:22.635Z,15.50
2022-09-28T23:04:53.933Z,16.30
2022-09-28T23:07:26.678Z,15.80
2022-09-28T23:10:00.252Z,17.30
2022-09-28T23:12:33.623Z,16.10
2022-09-28T23:15:05.077Z,16.30
2022-09-28T23:17:36.221Z,16.40
2022-09-28T23:20:08.648Z,16.30
2022-09-28T23:22:39.851Z,13.80
2022-09-28T23:25:11.924Z,17.10
2022-09-28T23:27:45.644Z,14.30
2022-09-28T23:30:18.446Z,14.70
2022-09-28T23:32:49.938Z,17.10
2022-09-28T23:35:21.743Z,15.80
2022-09-28T23:37:56.158Z,16.90
2022-09-28T23:40:28.122Z,16.70
2022-09-28T23:42:59.279Z,15.70
2022-09-28T23:45:30.361Z,13.40
2022-09-28T23:48:01.576Z,12.80
2022-09-28T23:50:32.846Z,13.30
2022-09-28T23:53:04.215Z,12.90
2022-09-28T23:55:35.810Z,11.90
2022-09-28T23:58:06.985Z,12.70
